Stephens, Missouri
Current Conditions -  °F | °C
As of 9:54 PM on Wednesday 22 Oct 2014 (Local Time) from KCOU Reporting Station
Clear Clear  
Wind Chill: 52°   Ceiling: Unl
Heat Index: 52°   Visibility: 10mi
Dew Point: 42°   Wind: 9mph
Humidity: 69%   Direction: 110°ESE
Pressure: 30.2"   Gusts: NA
Location:  39.0235°N, 92.2896°W
Report Text: KCOU 230254Z AUTO 11008KT 10SM CLR 11/06 A3020 RMK AO2 SLP225 T01110056 51005
Loading
Personal Weather Stations






























Interactive Weather Map New forecast layout! Learn more

10-Day Weather Forecast

Advertisements
Track Severe Weather on mobile